Time;durP1;ratioP1;P1;durP2;ratioP2;P2;SDS_P1;SDS_P2;PMS_P1;PMS_P2;Temp;Humidity;BMP_temperature;BMP_pressure;BME280_temperature;BME280_humidity;BME280_pressure;Samples;Min_cycle;Max_cycle;Signal;HPM_P1;HPM_P2
2024/01/02 00:00:22;;;;;;;15.18;4.07;;;;;;;10.69;62.73;100084.59;4961466;28;98040;-74
2024/01/02 00:02:49;;;;;;;13.93;4.00;;;;;;;10.70;62.78;100065.66;4966041;28;97462;-74
2024/01/02 00:05:16;;;;;;;12.77;4.00;;;;;;;10.70;62.82;100065.66;4961562;28;97383;-74
2024/01/02 00:07:43;;;;;;;11.85;4.35;;;;;;;10.69;62.75;100063.94;4960416;28;98303;-74
2024/01/02 00:10:10;;;;;;;13.85;4.40;;;;;;;10.69;62.98;100058.59;4975711;28;97881;-74
2024/01/02 00:12:38;;;;;;;13.73;3.70;;;;;;;10.68;63.00;100038.06;4960308;28;96952;-74
2024/01/02 00:15:06;;;;;;;17.98;4.43;;;;;;;10.67;63.05;100043.56;4948760;28;97093;-74
2024/01/02 00:17:33;;;;;;;15.45;3.92;;;;;;;10.65;63.03;100043.72;4950608;28;98215;-73
2024/01/02 00:20:00;;;;;;;10.10;4.10;;;;;;;10.65;63.10;100029.44;4967732;28;98247;-74
2024/01/02 00:22:26;;;;;;;12.85;3.97;;;;;;;10.66;63.05;100020.38;4961542;28;97477;-74
2024/01/02 00:24:53;;;;;;;14.50;3.70;;;;;;;10.64;63.43;100007.09;4974622;28;97227;-74
2024/01/02 00:27:20;;;;;;;15.77;3.90;;;;;;;10.63;63.48;99994.66;4975807;28;99832;-74
2024/01/02 00:29:46;;;;;;;11.73;4.55;;;;;;;10.63;63.40;99988.44;4946206;28;100288;-74
2024/01/02 00:32:13;;;;;;;15.43;4.00;;;;;;;10.64;63.38;99971.34;4962659;28;97200;-74
2024/01/02 00:34:40;;;;;;;14.93;4.15;;;;;;;10.66;63.31;99967.53;4982946;28;97588;-74
2024/01/02 00:37:07;;;;;;;16.27;4.35;;;;;;;10.68;63.52;99957.53;4961586;28;98509;-74
2024/01/02 00:39:33;;;;;;;13.13;4.50;;;;;;;10.69;63.66;99955.69;4958493;28;98238;-74
2024/01/02 00:42:00;;;;;;;17.40;4.18;;;;;;;10.69;63.41;99940.44;4945173;28;98134;-74
2024/01/02 00:44:27;;;;;;;9.00;3.83;;;;;;;10.70;63.49;99909.91;4989330;28;97855;-74
2024/01/02 00:46:54;;;;;;;11.95;3.50;;;;;;;10.72;63.88;99915.13;4959052;28;97829;-73
2024/01/02 00:49:21;;;;;;;9.43;3.17;;;;;;;10.73;63.61;99914.16;4983760;28;100610;-74
2024/01/02 00:51:48;;;;;;;11.05;3.42;;;;;;;10.73;63.80;99906.09;4948689;28;97676;-73
2024/01/02 00:54:14;;;;;;;10.43;3.47;;;;;;;10.74;63.84;99900.59;4952677;28;97196;-74
2024/01/02 00:56:41;;;;;;;12.95;3.33;;;;;;;10.76;63.48;99890.56;4959905;28;98047;-74
2024/01/02 00:59:07;;;;;;;11.82;3.33;;;;;;;10.77;63.73;99876.16;4961216;28;100349;-73
2024/01/02 01:01:34;;;;;;;11.23;3.65;;;;;;;10.78;63.59;99864.44;4943345;28;97098;-74
2024/01/02 01:04:02;;;;;;;10.25;3.28;;;;;;;10.80;63.81;99864.28;4967959;28;97795;-74
2024/01/02 01:06:29;;;;;;;11.85;2.95;;;;;;;10.79;63.92;99855.38;4962112;28;98088;-74
2024/01/02 01:08:56;;;;;;;9.63;2.88;;;;;;;10.81;63.95;99844.50;4960350;28;100336;-73
2024/01/02 01:11:23;;;;;;;7.95;2.70;;;;;;;10.82;64.01;99832.78;4983292;28;96974;-73
2024/01/02 01:13:50;;;;;;;11.57;3.08;;;;;;;10.81;63.94;99821.19;4985971;28;97136;-74
2024/01/02 01:16:16;;;;;;;10.02;3.15;;;;;;;10.80;63.94;99811.44;4960471;28;98704;-73
2024/01/02 01:18:43;;;;;;;8.60;2.38;;;;;;;10.81;64.14;99814.97;4958754;28;99670;-73
2024/01/02 01:21:10;;;;;;;10.25;2.83;;;;;;;10.81;64.34;99807.75;4959637;28;97125;-74
2024/01/02 01:23:37;;;;;;;10.50;2.40;;;;;;;10.82;64.16;99795.19;4960686;28;96917;-74
2024/01/02 01:26:04;;;;;;;7.20;2.38;;;;;;;10.83;64.24;99791.50;4960277;28;97886;-74
2024/01/02 01:28:31;;;;;;;12.73;2.88;;;;;;;10.83;64.31;99762.81;4963701;28;97934;-74
2024/01/02 01:30:58;;;;;;;6.63;2.00;;;;;;;10.85;64.11;99756.47;4962517;28;97954;-74
2024/01/02 01:33:24;;;;;;;9.52;2.60;;;;;;;10.87;64.48;99747.28;4993680;28;97101;-74
2024/01/02 01:35:51;;;;;;;8.32;3.15;;;;;;;10.87;64.25;99733.00;4993136;28;100308;-74
2024/01/02 01:38:18;;;;;;;8.90;2.60;;;;;;;10.88;64.27;99721.25;4975303;28;97959;-74
2024/01/02 01:40:45;;;;;;;8.00;1.95;;;;;;;10.88;64.40;99714.06;4964856;28;97150;-74
2024/01/02 01:43:13;;;;;;;5.60;1.75;;;;;;;10.87;64.29;99692.72;4962589;28;97982;-74
2024/01/02 01:45:40;;;;;;;7.10;2.08;;;;;;;10.88;64.46;99695.25;4964640;28;97631;-73
2024/01/02 01:48:09;;;;;;;5.80;1.80;;;;;;;10.86;64.71;99682.94;4964771;28;100115;-74
2024/01/02 01:50:36;;;;;;;9.77;2.17;;;;;;;10.88;64.58;99683.66;4986957;28;97215;-74
2024/01/02 01:53:05;;;;;;;5.93;1.63;;;;;;;10.88;64.67;99659.50;4980364;28;97343;-74
2024/01/02 01:55:33;;;;;;;10.30;2.20;;;;;;;10.89;64.74;99653.13;4952141;28;100376;-74
2024/01/02 01:58:00;;;;;;;4.63;1.50;;;;;;;10.90;64.52;99642.25;4974358;28;97410;-75
2024/01/02 02:00:27;;;;;;;5.38;1.95;;;;;;;10.91;64.69;99624.28;4981148;28;96987;-74
2024/01/02 02:02:55;;;;;;;5.57;1.80;;;;;;;10.91;64.82;99619.75;4964961;28;97282;-74
2024/01/02 02:05:25;;;;;;;6.50;1.90;;;;;;;10.91;64.57;99614.41;4963413;28;98020;-76
2024/01/02 02:07:53;;;;;;;4.65;1.85;;;;;;;10.92;64.81;99607.19;4950748;28;100602;-76
2024/01/02 02:10:21;;;;;;;5.38;1.70;;;;;;;10.92;64.71;99593.75;4976923;28;97200;-76
2024/01/02 02:12:48;;;;;;;3.75;1.42;;;;;;;10.91;64.84;99575.94;4965017;28;98452;-74
2024/01/02 02:15:14;;;;;;;4.43;1.45;;;;;;;10.91;64.91;99568.72;4961888;28;97980;-75
2024/01/02 02:17:43;;;;;;;5.60;1.70;;;;;;;10.91;64.81;99562.50;4946936;28;100066;-75
2024/01/02 02:20:11;;;;;;;5.47;1.42;;;;;;;10.90;64.76;99548.22;4962661;28;97589;-76
2024/01/02 02:22:39;;;;;;;2.45;1.00;;;;;;;10.90;64.74;99536.63;4964685;28;97740;-76
2024/01/02 02:25:07;;;;;;;3.75;1.35;;;;;;;10.89;65.15;99543.00;4983797;28;99964;-76
2024/01/02 02:27:34;;;;;;;3.90;1.00;;;;;;;10.88;64.99;99528.72;4953781;28;98683;-76
2024/01/02 02:30:02;;;;;;;4.15;1.50;;;;;;;10.89;64.94;99524.19;4965357;28;97666;-73
2024/01/02 02:32:28;;;;;;;4.22;1.48;;;;;;;10.89;65.25;99524.19;4986692;28;97008;-73
2024/01/02 02:34:55;;;;;;;2.95;1.13;;;;;;;10.89;65.09;99517.00;4973890;28;98191;-73
2024/01/02 02:37:22;;;;;;;3.33;1.30;;;;;;;10.90;65.13;99504.41;4962205;28;98353;-73
2024/01/02 02:39:48;;;;;;;3.28;1.38;;;;;;;10.91;65.25;99503.41;4963584;28;96850;-74
2024/01/02 02:42:15;;;;;;;2.75;1.33;;;;;;;10.92;65.21;99487.16;4963052;28;97064;-73
2024/01/02 02:44:43;;;;;;;1.92;0.77;;;;;;;10.92;65.28;99481.78;4988502;28;99974;-74
2024/01/02 02:47:10;;;;;;;2.47;1.02;;;;;;;10.94;65.49;99473.59;4961396;28;98183;-74
2024/01/02 02:49:37;;;;;;;3.47;1.10;;;;;;;10.93;65.57;99459.31;4962450;28;96832;-74
2024/01/02 02:52:04;;;;;;;3.72;1.08;;;;;;;10.93;65.08;99448.56;4948251;28;97044;-74
2024/01/02 02:54:32;;;;;;;1.75;0.98;;;;;;;10.94;65.71;99447.56;4949047;28;100972;-74
2024/01/02 02:56:59;;;;;;;4.63;1.20;;;;;;;10.94;65.44;99435.97;4947484;28;97964;-74
2024/01/02 02:59:25;;;;;;;2.70;1.13;;;;;;;10.95;65.63;99408.13;4960630;28;97035;-74
2024/01/02 03:01:52;;;;;;;2.17;1.00;;;;;;;10.93;65.37;99400.22;4947981;28;97232;-74
2024/01/02 03:04:19;;;;;;;2.70;0.90;;;;;;;10.93;65.56;99407.44;4943272;28;99969;-74
2024/01/02 03:06:46;;;;;;;3.33;0.85;;;;;;;10.93;65.48;99400.22;4961770;28;98192;-74
2024/01/02 03:09:13;;;;;;;1.63;0.70;;;;;;;10.93;65.77;99385.94;4966297;28;97191;-75
2024/01/02 03:11:40;;;;;;;3.03;0.70;;;;;;;10.92;65.69;99376.19;4959357;28;97528;-74
2024/01/02 03:14:07;;;;;;;1.67;0.70;;;;;;;10.91;65.77;99361.91;4945791;28;99941;-74
2024/01/02 03:16:33;;;;;;;1.52;0.70;;;;;;;10.91;65.95;99336.91;4974112;28;100590;-75
2024/01/02 03:19:00;;;;;;;2.97;0.90;;;;;;;10.89;66.14;99339.72;4965186;28;97784;-74
2024/01/02 03:21:30;;;;;;;1.67;0.75;;;;;;;10.88;65.95;99340.72;4987767;28;96884;-74
2024/01/02 03:23:58;;;;;;;1.35;0.70;;;;;;;10.87;66.04;99332.81;4983890;28;99657;-74
2024/01/02 03:26:24;;;;;;;2.38;0.65;;;;;;;10.88;65.80;99321.91;4962083;28;98355;-74
2024/01/02 03:28:51;;;;;;;1.52;0.70;;;;;;;10.88;65.83;99313.00;4952674;28;97789;-74
2024/01/02 03:31:18;;;;;;;1.88;0.70;;;;;;;10.87;66.09;99297.91;4943664;28;97159;-74
2024/01/02 03:33:44;;;;;;;2.38;0.60;;;;;;;10.87;66.21;99292.53;4960144;28;97952;-74
2024/01/02 03:36:13;;;;;;;0.95;0.60;;;;;;;10.85;66.35;99281.94;4986912;28;99791;-74
2024/01/02 03:38:40;;;;;;;1.70;0.80;;;;;;;10.83;66.39;99255.22;4961193;28;96955;-74
2024/01/02 03:41:06;;;;;;;1.75;0.75;;;;;;;10.85;66.53;99260.44;4959837;28;97289;-74
2024/01/02 03:43:33;;;;;;;1.25;0.70;;;;;;;10.84;66.73;99242.66;4963875;28;97904;-74
2024/01/02 03:46:00;;;;;;;1.38;0.70;;;;;;;10.85;66.78;99247.03;4946141;28;99806;-74
2024/01/02 03:48:27;;;;;;;0.75;0.60;;;;;;;10.85;66.94;99224.69;4969314;28;98902;-74
2024/01/02 03:50:53;;;;;;;1.30;0.70;;;;;;;10.82;66.80;99221.31;4961580;28;97295;-74
2024/01/02 03:53:20;;;;;;;1.10;0.60;;;;;;;10.83;67.10;99225.69;4960801;28;97946;-74
2024/01/02 03:55:47;;;;;;;0.70;0.60;;;;;;;10.85;67.36;99224.69;4944793;28;100151;-75
2024/01/02 03:58:13;;;;;;;1.77;0.60;;;;;;;10.85;67.50;99211.25;4961618;28;97425;-74
2024/01/02 04:00:40;;;;;;;0.50;0.50;;;;;;;10.86;67.49;99215.63;4960564;28;97284;-74
2024/01/02 04:03:07;;;;;;;0.75;0.60;;;;;;;10.86;67.65;99213.81;4972732;28;99766;-74
2024/01/02 04:05:33;;;;;;;2.25;0.80;;;;;;;10.88;67.84;99206.44;4961588;28;97554;-74
2024/01/02 04:08:00;;;;;;;1.70;0.82;;;;;;;10.89;67.74;99189.31;4961126;28;97283;-74
2024/01/02 04:10:27;;;;;;;1.88;0.88;;;;;;;10.90;67.96;99182.13;4978263;28;97003;-75
2024/01/02 04:12:54;;;;;;;1.02;0.80;;;;;;;10.90;67.88;99179.44;4978152;28;99599;-74
2024/01/02 04:15:21;;;;;;;1.88;0.60;;;;;;;10.92;67.91;99193.56;4961859;28;99957;-75
2024/01/02 04:17:48;;;;;;;1.30;0.90;;;;;;;10.95;68.25;99195.94;4962228;28;96808;-76
2024/01/02 04:20:15;;;;;;;1.00;0.68;;;;;;;10.99;68.22;99183.88;4946739;28;97367;-74
2024/01/02 04:22:41;;;;;;;0.73;0.70;;;;;;;11.01;68.35;99172.00;4978218;28;98112;-75
2024/01/02 04:25:08;;;;;;;0.80;0.70;;;;;;;11.02;68.49;99159.41;4962261;28;97487;-75
2024/01/02 04:27:35;;;;;;;1.08;0.85;;;;;;;11.04;68.28;99170.84;4962162;28;97914;-75
2024/01/02 04:30:02;;;;;;;1.77;0.80;;;;;;;11.07;68.69;99178.59;4993241;28;97261;-75
2024/01/02 04:32:29;;;;;;;0.98;0.80;;;;;;;11.10;68.67;99165.69;4961932;28;98215;-74
2024/01/02 04:34:56;;;;;;;1.23;0.60;;;;;;;11.13;68.72;99161.88;4961661;28;98158;-74
2024/01/02 04:37:22;;;;;;;1.35;0.85;;;;;;;11.16;68.77;99169.66;4994896;28;97421;-74
2024/01/02 04:39:49;;;;;;;1.40;1.20;;;;;;;11.21;68.97;99136.94;4995422;28;96844;-74
2024/01/02 04:42:16;;;;;;;0.93;0.80;;;;;;;11.23;68.99;99135.78;4961595;28;98064;-75
2024/01/02 04:44:45;;;;;;;0.73;0.73;;;;;;;11.25;68.89;99127.56;4962098;28;99854;-74
2024/01/02 04:47:12;;;;;;;0.80;0.70;;;;;;;11.26;69.00;99140.84;4959152;28;96929;-74
2024/01/02 04:49:38;;;;;;;0.90;0.60;;;;;;;11.30;69.21;99126.09;4987084;28;97525;-74
2024/01/02 04:52:05;;;;;;;1.15;0.90;;;;;;;11.33;69.13;99141.91;4957306;28;98380;-75
2024/01/02 04:54:32;;;;;;;5.68;3.78;;;;;;;11.37;69.38;99131.69;4960927;28;97762;-75
2024/01/02 04:56:58;;;;;;;3.88;3.38;;;;;;;11.42;69.38;99130.25;4944996;28;97143;-75
2024/01/02 04:59:25;;;;;;;3.47;2.67;;;;;;;11.46;69.15;99133.44;4942735;28;97581;-74
2024/01/02 05:01:52;;;;;;;2.08;1.88;;;;;;;11.49;69.69;99146.59;4958457;28;98453;-74
2024/01/02 05:04:18;;;;;;;1.95;1.40;;;;;;;11.51;69.49;99123.06;4960776;28;98145;-74
2024/01/02 05:06:46;;;;;;;2.20;2.00;;;;;;;11.54;69.46;99124.59;4957874;28;97132;-74
2024/01/02 05:09:12;;;;;;;2.45;1.80;;;;;;;11.55;69.53;99118.22;4967660;28;96936;-74
2024/01/02 05:11:40;;;;;;;6.78;4.93;;;;;;;11.57;69.71;99100.94;4960568;28;100198;-74
2024/01/02 05:14:06;;;;;;;8.93;6.00;;;;;;;11.60;69.58;99123.97;4945463;28;100480;-74
2024/01/02 05:16:33;;;;;;;6.22;4.68;;;;;;;11.65;70.05;99127.03;4973288;28;97276;-74
2024/01/02 05:19:00;;;;;;;4.82;3.75;;;;;;;11.69;70.13;99123.88;4981533;28;97115;-74
2024/01/02 05:21:27;;;;;;;1.90;1.38;;;;;;;11.74;70.02;99120.72;4964351;28;98925;-75
2024/01/02 05:23:54;;;;;;;0.90;0.90;;;;;;;11.79;70.12;99118.41;4964285;28;98607;-75
2024/01/02 05:26:20;;;;;;;2.35;1.17;;;;;;;11.84;69.73;99115.25;4965584;28;96926;-74
2024/01/02 05:28:47;;;;;;;1.13;0.90;;;;;;;11.87;69.99;99099.63;4996475;28;97852;-74
2024/01/02 05:31:14;;;;;;;1.00;0.90;;;;;;;11.92;70.05;99109.94;4961032;28;100304;-74
2024/01/02 05:33:41;;;;;;;0.77;0.77;;;;;;;11.96;70.26;99104.09;4951789;28;98819;-75
2024/01/02 05:36:12;;;;;;;0.80;0.80;;;;;;;12.00;70.37;99104.63;4963880;28;97316;-74
2024/01/02 05:38:38;;;;;;;0.80;0.80;;;;;;;12.06;70.19;99103.97;4947069;28;97074;-75
2024/01/02 05:41:07;;;;;;;1.63;1.10;;;;;;;12.11;70.39;99112.41;4964068;28;98295;-74
2024/01/02 05:43:34;;;;;;;1.10;1.00;;;;;;;12.16;70.63;99111.91;4969646;28;100359;-75
2024/01/02 05:46:01;;;;;;;1.23;1.05;;;;;;;12.22;70.73;99117.50;4965346;28;97000;-75
2024/01/02 05:48:28;;;;;;;1.40;1.30;;;;;;;12.28;70.71;99111.47;4953305;28;97648;-75
2024/01/02 05:50:55;;;;;;;1.60;1.50;;;;;;;12.33;70.88;99113.66;4952070;28;97980;-75
2024/01/02 05:53:21;;;;;;;1.50;1.40;;;;;;;12.38;70.60;99117.56;4964423;28;97962;-75
2024/01/02 05:55:48;;;;;;;2.20;1.65;;;;;;;12.45;70.73;99119.59;4963384;28;96974;-75
2024/01/02 05:58:15;;;;;;;2.38;1.77;;;;;;;12.49;70.71;99115.56;4972600;28;97291;-75
2024/01/02 06:00:41;;;;;;;2.20;2.00;;;;;;;12.53;70.67;99104.31;4945880;28;100411;-75
2024/01/02 06:03:08;;;;;;;2.00;1.80;;;;;;;12.57;70.74;99104.84;4947529;28;98719;-75
2024/01/02 06:05:35;;;;;;;2.20;2.00;;;;;;;12.63;71.15;99115.81;4985987;28;97074;-75
2024/01/02 06:08:02;;;;;;;3.88;2.40;;;;;;;12.68;70.79;99110.78;4963871;28;96862;-75
2024/01/02 06:10:28;;;;;;;2.67;2.47;;;;;;;12.75;71.05;99126.28;4965502;28;97790;-74
2024/01/02 06:12:55;;;;;;;2.75;2.55;;;;;;;12.81;70.93;99131.00;4953993;28;100628;-77
2024/01/02 06:15:22;;;;;;;3.22;2.75;;;;;;;12.87;71.02;99135.75;4946582;28;97915;-75
2024/01/02 06:17:49;;;;;;;4.15;2.80;;;;;;;12.92;71.13;99138.78;4964727;28;97112;-75
2024/01/02 06:20:16;;;;;;;3.40;3.10;;;;;;;12.98;71.00;99136.25;4963356;28;97843;-75
2024/01/02 06:22:43;;;;;;;4.60;3.67;;;;;;;13.04;71.49;99138.28;4964061;28;97674;-76
2024/01/02 06:25:10;;;;;;;4.60;4.20;;;;;;;13.12;71.50;99136.63;4993151;28;97285;-75
2024/01/02 06:27:40;;;;;;;6.38;4.47;;;;;;;13.16;71.25;99141.50;4989594;28;97373;-75
2024/01/02 06:30:07;;;;;;;6.57;4.75;;;;;;;13.23;71.41;99161.44;4948775;28;98031;-78
2024/01/02 06:32:34;;;;;;;5.70;4.82;;;;;;;13.30;71.45;99150.81;4963607;28;97998;-75
2024/01/02 06:35:01;;;;;;;5.13;4.38;;;;;;;13.34;71.55;99161.09;4961790;28;96983;-75
2024/01/02 06:37:28;;;;;;;7.25;4.78;;;;;;;13.40;71.41;99156.91;4976171;28;97842;-75
2024/01/02 06:39:55;;;;;;;6.05;4.97;;;;;;;13.47;71.67;99168.72;4977335;28;100219;-75
2024/01/02 06:42:22;;;;;;;8.90;5.13;;;;;;;13.53;71.75;99165.34;4961419;28;97858;-75
2024/01/02 06:44:48;;;;;;;7.03;4.90;;;;;;;13.59;71.78;99188.94;4978911;28;97291;-76
2024/01/02 06:47:15;;;;;;;8.15;5.05;;;;;;;13.65;71.54;99188.28;4964005;28;97734;-74
2024/01/02 06:49:42;;;;;;;10.13;6.40;;;;;;;13.70;71.77;99179.66;4962059;28;100016;-75
2024/01/02 06:52:08;;;;;;;9.32;6.20;;;;;;;13.76;71.66;99189.78;4978000;28;100460;-75
2024/01/02 06:54:35;;;;;;;12.15;5.85;;;;;;;13.82;71.96;99199.03;4943697;28;97192;-76
2024/01/02 06:57:02;;;;;;;11.85;5.88;;;;;;;13.87;71.86;99202.91;4961875;28;96992;-76
2024/01/02 06:59:29;;;;;;;12.75;5.95;;;;;;;13.93;71.70;99207.63;4978297;28;100263;-75
2024/01/02 07:01:56;;;;;;;11.93;5.93;;;;;;;14.00;71.97;99200.53;4962619;28;100030;-74
2024/01/02 07:04:24;;;;;;;13.90;5.38;;;;;;;14.05;71.74;99193.78;4976909;28;96981;-75
2024/01/02 07:06:52;;;;;;;10.50;5.10;;;;;;;14.10;71.95;99194.97;4960956;28;97405;-74
2024/01/02 07:09:19;;;;;;;14.15;5.28;;;;;;;14.17;71.92;99208.66;4958476;28;97890;-76
2024/01/02 07:11:46;;;;;;;13.80;4.40;;;;;;;14.21;71.64;99197.34;4961382;28;99749;-78
2024/01/02 07:14:13;;;;;;;14.13;4.47;;;;;;;14.26;71.69;99204.91;4993126;28;97443;-75
2024/01/02 07:16:40;;;;;;;19.10;4.97;;;;;;;14.30;71.99;99207.09;4962911;28;97017;-75
2024/01/02 07:19:06;;;;;;;18.55;4.82;;;;;;;14.34;71.51;99210.28;4958701;28;98325;-75
2024/01/02 07:21:33;;;;;;;20.27;5.13;;;;;;;14.38;71.54;99218.88;4994339;28;98874;-75
2024/01/02 07:24:00;;;;;;;15.00;4.57;;;;;;;14.40;71.70;99212.31;4972503;28;97239;-75
2024/01/02 07:26:26;;;;;;;14.38;4.65;;;;;;;14.43;71.68;99209.28;4967760;28;98266;-75
2024/01/02 07:28:53;;;;;;;13.65;4.35;;;;;;;14.45;71.64;99228.00;4957773;28;100036;-73
2024/01/02 07:31:20;;;;;;;22.98;5.65;;;;;;;14.46;71.56;99235.94;4975390;28;99837;-75
2024/01/02 07:33:47;;;;;;;17.45;4.63;;;;;;;14.49;71.22;99241.00;4945780;28;97006;-75
2024/01/02 07:36:18;;;;;;;23.00;5.05;;;;;;;14.51;71.22;99252.47;4976969;28;97427;-75
2024/01/02 07:38:45;;;;;;;15.10;4.97;;;;;;;14.52;71.46;99246.06;4961721;28;97556;-75
2024/01/02 07:41:12;;;;;;;16.52;4.38;;;;;;;14.54;71.39;99254.84;4960739;28;99800;-75
2024/01/02 07:43:38;;;;;;;17.95;4.78;;;;;;;14.56;71.05;99265.47;4994787;28;96824;-74
2024/01/02 07:46:05;;;;;;;25.90;6.05;;;;;;;14.56;70.90;99271.72;4995327;28;98085;-75
2024/01/02 07:48:32;;;;;;;19.73;4.75;;;;;;;14.56;71.15;99262.75;4960299;28;98367;-74
2024/01/02 07:50:59;;;;;;;17.77;5.65;;;;;;;14.56;70.77;99273.56;4961874;28;100456;-75
2024/01/02 07:53:25;;;;;;;14.50;4.95;;;;;;;14.54;70.87;99281.00;4977308;28;96942;-74
2024/01/02 07:55:52;;;;;;;19.25;5.45;;;;;;;14.52;70.89;99289.28;4961624;28;98519;-74
2024/01/02 07:58:19;;;;;;;21.65;5.18;;;;;;;14.51;70.81;99293.00;4944315;28;99941;-75
2024/01/02 08:00:45;;;;;;;24.02;6.15;;;;;;;14.50;70.71;99290.47;4961534;28;99622;-75
2024/01/02 08:03:14;;;;;;;21.20;5.40;;;;;;;14.51;70.78;99287.59;4994373;28;96935;-75
2024/01/02 08:05:41;;;;;;;22.67;6.32;;;;;;;14.52;70.76;99285.72;4959943;28;97329;-75
2024/01/02 08:08:08;;;;;;;26.42;6.15;;;;;;;14.51;70.63;99284.06;4959449;28;100054;-74
2024/01/02 08:10:35;;;;;;;22.50;6.47;;;;;;;14.52;70.58;99288.44;4959400;28;99747;-75
2024/01/02 08:13:02;;;;;;;25.98;5.82;;;;;;;14.51;70.79;99293.00;4960041;28;97585;-75
2024/01/02 08:15:30;;;;;;;28.98;6.45;;;;;;;14.53;70.55;99287.41;4961326;28;98645;-75
2024/01/02 08:18:07;;;;;;;23.35;5.90;;;;;;;14.55;70.73;99272.72;4961637;28;97872;-75
2024/01/02 08:20:35;;;;;;;28.42;6.65;;;;;;;14.57;70.62;99286.91;4966488;28;100050;-75
2024/01/02 08:23:02;;;;;;;23.65;7.00;;;;;;;14.58;70.48;99280.47;4973715;28;98146;-75
2024/01/02 08:25:28;;;;;;;24.48;6.03;;;;;;;14.60;70.47;99283.00;4986140;28;96920;-81
2024/01/02 08:27:55;;;;;;;24.75;5.72;;;;;;;14.61;70.67;99271.19;4961142;28;98093;-79
2024/01/02 08:30:22;;;;;;;19.45;5.72;;;;;;;14.65;70.58;99279.78;4945001;28;98467;-78
2024/01/02 08:32:48;;;;;;;22.83;6.22;;;;;;;14.66;70.36;99278.78;4972947;28;97450;-78
2024/01/02 08:35:16;;;;;;;22.52;5.80;;;;;;;14.66;70.42;99273.38;4957421;28;97309;-78
2024/01/02 08:37:43;;;;;;;19.80;5.53;;;;;;;14.67;70.40;99272.34;4986765;28;97960;-78
2024/01/02 08:40:12;;;;;;;19.85;5.55;;;;;;;14.67;70.56;99281.31;4972873;28;98628;-78
2024/01/02 08:42:38;;;;;;;23.98;5.18;;;;;;;14.69;70.51;99275.72;4943266;28;97005;-78
2024/01/02 08:45:06;;;;;;;25.85;5.97;;;;;;;14.68;70.52;99276.75;4962075;28;96979;-78
2024/01/02 08:47:33;;;;;;;20.00;6.10;;;;;;;14.67;69.98;99284.00;4991455;28;98209;-78
2024/01/02 08:50:00;;;;;;;26.45;6.85;;;;;;;14.67;69.90;99285.88;4961179;28;97949;-78
2024/01/02 08:52:27;;;;;;;25.55;6.47;;;;;;;14.67;70.10;99286.72;4944710;28;96881;-78
2024/01/02 08:54:54;;;;;;;24.67;7.00;;;;;;;14.66;69.87;99289.59;4977923;28;97742;-79
2024/01/02 08:57:21;;;;;;;26.17;7.35;;;;;;;14.66;70.18;99290.44;4970298;28;98112;-78
2024/01/02 08:59:48;;;;;;;24.08;6.45;;;;;;;14.66;70.32;99281.47;4968689;28;98367;-78
2024/01/02 09:02:15;;;;;;;23.15;6.50;;;;;;;14.67;69.96;99275.06;4960809;28;97070;-78
2024/01/02 09:04:43;;;;;;;31.17;7.30;;;;;;;14.68;70.36;99277.59;4945127;28;96934;-78
2024/01/02 09:07:10;;;;;;;23.73;6.80;;;;;;;14.69;70.02;99270.31;4944303;28;100247;-78
2024/01/02 09:09:39;;;;;;;24.15;6.50;;;;;;;14.71;70.37;99269.13;4991495;28;98106;-78
2024/01/02 09:12:08;;;;;;;30.23;7.05;;;;;;;14.73;70.16;99268.97;4976752;28;97383;-78
2024/01/02 09:14:37;;;;;;;23.67;7.13;;;;;;;14.74;69.90;99255.28;4988918;28;96821;-79
2024/01/02 09:17:04;;;;;;;25.17;6.45;;;;;;;14.76;70.05;99261.34;4960153;28;98107;-78
2024/01/02 09:19:31;;;;;;;31.13;8.65;;;;;;;14.78;69.98;99264.72;4959856;28;98154;-77
2024/01/02 09:21:58;;;;;;;25.60;6.50;;;;;;;14.79;70.27;99265.56;4960490;28;97433;-78
2024/01/02 09:24:24;;;;;;;28.33;7.10;;;;;;;14.81;70.11;99267.06;4944036;28;97463;-78
2024/01/02 09:26:54;;;;;;;25.13;6.43;;;;;;;14.82;70.26;99266.06;4960846;28;97981;-78
2024/01/02 09:29:23;;;;;;;23.40;6.43;;;;;;;14.84;70.12;99263.19;4948291;28;100230;-78
2024/01/02 09:31:50;;;;;;;29.17;7.15;;;;;;;14.86;70.22;99269.25;4962874;28;97406;-78
2024/01/02 09:34:18;;;;;;;27.05;6.90;;;;;;;14.87;70.07;99260.16;4957496;28;97250;-78
2024/01/02 09:36:46;;;;;;;24.27;6.93;;;;;;;14.89;70.20;99268.94;4974697;28;97389;-78
2024/01/02 09:39:14;;;;;;;22.05;6.90;;;;;;;14.91;70.23;99262.34;4960090;28;97768;-78
2024/01/02 09:42:00;;;;;;;21.73;7.10;;;;;;;14.95;69.97;99268.22;4971934;28;97090;-78
2024/01/02 09:45:04;;;;;;;24.27;6.47;;;;;;;14.98;70.28;99257.06;4958237;28;97090;-78
2024/01/02 09:47:41;;;;;;;22.30;6.88;;;;;;;15.03;70.30;99254.69;4989576;28;98402;-78
2024/01/02 09:50:18;;;;;;;26.80;7.07;;;;;;;15.05;70.30;99257.19;4971487;28;98343;-78
2024/01/02 09:52:46;;;;;;;23.85;6.78;;;;;;;15.06;69.96;99265.13;4963104;28;97282;-78
2024/01/02 09:55:31;;;;;;;21.15;7.00;;;;;;;15.08;70.07;99252.28;4964464;28;97102;-78
2024/01/02 09:58:19;;;;;;;18.17;6.63;;;;;;;15.09;70.25;99258.53;4985247;28;98442;-79
2024/01/02 10:01:13;;;;;;;19.27;6.63;;;;;;;15.11;70.23;99254.63;4947715;28;98414;-78
2024/01/02 10:03:59;;;;;;;20.73;6.75;;;;;;;15.11;70.05;99256.50;4963585;28;97595;-79
2024/01/02 10:06:44;;;;;;;20.48;6.82;;;;;;;15.12;70.02;99266.28;4994365;28;97339;-79
2024/01/02 10:09:32;;;;;;;20.87;6.07;;;;;;;15.14;70.27;99261.56;4978628;28;98699;-78
2024/01/02 10:12:33;;;;;;;17.30;6.47;;;;;;;15.16;70.20;99254.94;4964840;28;97485;-79
2024/01/02 10:15:30;;;;;;;18.63;6.88;;;;;;;15.18;70.12;99252.91;4985099;28;97545;-79
2024/01/02 10:18:22;;;;;;;17.55;7.45;;;;;;;15.21;70.08;99249.84;4964198;28;96976;-78
2024/01/02 10:21:07;;;;;;;19.42;7.95;;;;;;;15.23;70.07;99242.41;4964914;28;97302;-78
2024/01/02 10:23:58;;;;;;;18.73;7.68;;;;;;;15.24;69.99;99240.53;4961310;28;98501;-78
2024/01/02 10:26:27;;;;;;;18.05;8.50;;;;;;;15.25;70.23;99232.25;4961377;28;96932;-78
2024/01/02 10:29:03;;;;;;;19.98;8.70;;;;;;;15.24;70.09;99238.69;4942381;28;97348;-78
2024/01/02 10:31:48;;;;;;;18.38;8.38;;;;;;;15.25;70.29;99243.06;4981634;28;97666;-78
2024/01/02 10:34:30;;;;;;;16.98;9.15;;;;;;;15.26;70.21;99228.53;4967457;28;100041;-78
2024/01/02 10:37:06;;;;;;;19.08;9.55;;;;;;;15.29;70.21;99231.88;4967733;28;97153;-79
2024/01/02 10:40:02;;;;;;;15.50;9.00;;;;;;;15.27;69.94;99223.97;4951520;28;97091;-78
2024/01/02 10:42:32;;;;;;;16.90;8.80;;;;;;;15.31;70.22;99227.16;4993195;28;98647;-78
2024/01/02 10:45:25;;;;;;;22.50;9.35;;;;;;;15.31;70.13;99224.44;4948089;28;100155;-78
2024/01/02 10:48:14;;;;;;;15.05;9.57;;;;;;;15.31;70.10;99219.88;4994157;28;97203;-78
2024/01/02 10:51:13;;;;;;;15.88;9.23;;;;;;;15.31;70.25;99200.09;4969315;28;97185;-78
2024/01/02 10:53:50;;;;;;;15.73;10.05;;;;;;;15.31;70.12;99202.81;4963191;28;97795;-79
2024/01/02 10:56:41;;;;;;;13.77;9.95;;;;;;;15.29;70.08;99202.13;4978520;28;98193;-79
2024/01/02 10:59:17;;;;;;;13.20;8.82;;;;;;;15.28;70.09;99187.78;4980578;28;97654;-78
2024/01/02 11:01:52;;;;;;;13.70;8.85;;;;;;;15.23;70.04;99191.00;4947312;28;97432;-78
2024/01/02 11:04:31;;;;;;;10.27;8.90;;;;;;;15.20;69.89;99188.66;4973278;28;97297;-79
2024/01/02 11:07:06;;;;;;;10.27;8.18;;;;;;;15.19;69.94;99178.88;4996728;28;98141;-79
2024/01/02 11:09:43;;;;;;;8.18;7.25;;;;;;;15.18;70.13;99181.75;4994701;28;97526;-79
2024/01/02 11:12:18;;;;;;;7.97;6.70;;;;;;;15.17;69.92;99182.78;4978944;28;97602;-77
2024/01/02 11:14:51;;;;;;;6.80;5.88;;;;;;;15.14;69.90;99175.88;4963634;28;100191;-78
2024/01/02 11:17:23;;;;;;;6.50;5.40;;;;;;;15.12;70.33;99167.09;4962412;28;98638;-77
2024/01/02 11:20:07;;;;;;;5.70;5.07;;;;;;;15.10;69.97;99161.03;4945442;28;97129;-76
2024/01/02 11:22:49;;;;;;;4.20;3.80;;;;;;;15.11;70.05;99162.69;4973887;28;96907;-76
2024/01/02 11:25:29;;;;;;;3.50;3.20;;;;;;;15.10;70.19;99149.38;4960750;28;98590;-76
2024/01/02 11:28:16;;;;;;;2.60;2.40;;;;;;;15.10;70.34;99147.50;4990866;28;97253;-75
2024/01/02 11:30:52;;;;;;;2.75;2.38;;;;;;;15.10;70.30;99146.66;4991562;28;97265;-76
2024/01/02 11:34:05;;;;;;;2.57;2.20;;;;;;;15.09;70.22;99137.72;4953031;28;96964;-76
2024/01/02 11:36:57;;;;;;;2.50;2.30;;;;;;;15.13;70.07;99130.91;4959186;28;98338;-76
2024/01/02 11:39:53;;;;;;;1.80;1.70;;;;;;;15.12;70.10;99113.00;4955472;28;98244;-77